Time,TemperatureF,DewpointF,PressureIn,WindDirection,WindDirectionDegrees,WindSpeedMPH,WindSpeedGustMPH,Humidity,HourlyPrecipIn,Conditions,Clouds,dailyrainin,SolarRadiationWatts/m^2,SoftwareType,DateUTC
2013-03-26 00:02:00,34.9,26.4,29.75,West,279,1.0,7.0,68,0.00,,,0.57,0.0,meteohub,2013-03-26 04:02:00,
2013-03-26 00:05:00,35.1,27.7,29.75,WNW,284,2.0,7.0,71,0.00,,,0.57,0.0,meteohub,2013-03-26 04:05:00,
2013-03-26 00:08:00,35.1,27.0,29.75,West,279,3.0,7.0,69,0.00,,,0.00,0.0,meteohub,2013-03-26 04:08:00,
2013-03-26 00:14:00,35.2,26.8,29.75,ESE,118,0.0,7.0,68,0.00,,,0.00,0.0,meteohub,2013-03-26 04:14:00,
2013-03-26 00:20:00,35.4,27.7,29.75,ESE,118,2.0,5.0,70,0.00,,,0.00,0.0,meteohub,2013-03-26 04:20:00,
2013-03-26 00:26:00,35.1,27.7,29.75,ESE,118,0.0,5.0,71,0.00,,,0.00,0.0,meteohub,2013-03-26 04:26:00,
2013-03-26 00:32:00,34.9,27.5,29.75,South,184,0.0,3.0,71,0.00,,,0.00,0.0,meteohub,2013-03-26 04:32:00,
2013-03-26 00:37:00,34.7,27.5,29.75,South,184,0.0,3.0,72,0.00,,,0.00,0.0,meteohub,2013-03-26 04:37:00,
2013-03-26 00:42:00,34.5,27.7,29.75,South,184,0.0,3.0,73,0.00,,,0.00,0.0,meteohub,2013-03-26 04:42:00,
2013-03-26 00:47:00,34.3,27.3,29.76,WSW,250,0.0,2.0,72,0.00,,,0.00,0.0,meteohub,2013-03-26 04:47:00,
2013-03-26 00:53:00,34.3,27.5,29.76,WSW,250,0.0,3.0,73,0.00,,,0.00,0.0,meteohub,2013-03-26 04:53:00,
2013-03-26 00:59:00,34.2,27.7,29.77,WSW,250,0.0,3.0,74,0.00,,,0.00,0.0,meteohub,2013-03-26 04:59:00,
2013-03-26 01:05:00,34.5,27.3,29.77,WNW,300,2.0,3.0,72,0.00,,,0.00,0.0,meteohub,2013-03-26 05:05:00,
2013-03-26 01:11:00,35.1,27.9,29.77,WSW,250,2.0,5.0,72,0.00,,,0.00,0.0,meteohub,2013-03-26 05:11:00,
2013-03-26 01:17:00,35.6,27.5,29.77,West,262,0.0,5.0,69,0.00,,,0.00,0.0,meteohub,2013-03-26 05:17:00,
2013-03-26 01:22:00,35.8,27.7,29.77,West,281,1.0,7.0,69,0.00,,,0.00,0.0,meteohub,2013-03-26 05:22:00,
2013-03-26 01:27:00,36.0,27.5,29.77,West,281,0.0,7.0,68,0.00,,,0.00,0.0,meteohub,2013-03-26 05:27:00,
2013-03-26 01:33:00,36.0,28.4,29.78,West,281,0.0,7.0,71,0.00,,,0.00,0.0,meteohub,2013-03-26 05:33:00,
2013-03-26 01:39:00,35.8,28.6,29.78,WNW,282,0.0,2.0,72,0.00,,,0.00,0.0,meteohub,2013-03-26 05:39:00,
2013-03-26 01:45:00,35.2,28.0,29.78,WNW,282,0.0,4.0,72,0.00,,,0.00,0.0,meteohub,2013-03-26 05:45:00,
2013-03-26 01:51:00,34.9,28.4,29.78,WNW,282,0.0,4.0,74,0.00,,,0.00,0.0,meteohub,2013-03-26 05:51:00,
2013-03-26 01:57:00,34.5,28.8,29.78,WNW,282,0.0,2.0,76,0.00,,,0.00,0.0,meteohub,2013-03-26 05:57:00,
2013-03-26 02:02:00,34.2,28.4,29.78,WNW,282,0.0,2.0,76,0.00,,,0.00,0.0,meteohub,2013-03-26 06:02:00,
2013-03-26 02:07:00,34.0,28.4,29.79,WNW,282,0.0,2.0,77,0.00,,,0.00,0.0,meteohub,2013-03-26 06:07:00,
2013-03-26 02:12:00,33.8,28.0,29.79,WNW,282,0.0,2.0,76,0.00,,,0.00,0.0,meteohub,2013-03-26 06:12:00,
2013-03-26 02:17:00,33.6,28.0,29.79,WNW,282,0.0,1.0,77,0.00,,,0.00,0.0,meteohub,2013-03-26 06:17:00,
2013-03-26 02:22:00,33.6,28.8,29.79,WNW,282,0.0,0.0,79,0.00,,,0.00,0.0,meteohub,2013-03-26 06:22:00,
2013-03-26 02:28:00,33.3,28.6,29.78,WNW,282,0.0,2.0,80,0.00,,,0.00,0.0,meteohub,2013-03-26 06:28:00,
2013-03-26 02:34:00,33.1,28.2,29.79,WNW,282,1.0,2.0,79,0.00,,,0.00,0.0,meteohub,2013-03-26 06:34:00,
2013-03-26 02:40:00,33.1,28.2,29.79,WNW,282,0.0,2.0,79,0.00,,,0.00,0.0,meteohub,2013-03-26 06:40:00,
2013-03-26 02:46:00,32.9,28.2,29.79,WNW,282,0.0,2.0,80,0.00,,,0.00,0.0,meteohub,2013-03-26 06:46:00,
2013-03-26 02:52:00,32.9,28.6,29.79,WNW,282,2.0,3.0,81,0.00,,,0.00,0.0,meteohub,2013-03-26 06:52:00,
2013-03-26 02:57:00,32.9,28.9,29.79,WNW,282,0.0,3.0,82,0.00,,,0.00,0.0,meteohub,2013-03-26 06:57:00,
2013-03-26 03:04:00,32.9,28.9,29.79,WNW,282,0.0,3.0,82,0.00,,,0.00,0.0,meteohub,2013-03-26 07:04:00,
2013-03-26 03:11:00,32.7,28.4,29.79,WNW,282,0.0,2.0,81,0.00,,,0.00,0.0,meteohub,2013-03-26 07:11:00,
2013-03-26 03:17:00,32.7,28.8,29.79,WNW,282,0.0,2.0,82,0.00,,,0.00,0.0,meteohub,2013-03-26 07:17:00,
2013-03-26 03:22:00,32.5,28.8,29.79,WNW,282,0.0,1.0,83,0.00,,,0.00,0.0,meteohub,2013-03-26 07:22:00,
2013-03-26 03:27:00,32.5,28.8,29.79,WNW,282,1.0,3.0,83,0.00,,,0.00,0.0,meteohub,2013-03-26 07:27:00,
2013-03-26 03:32:00,32.4,28.6,29.79,WNW,282,2.0,3.0,83,0.00,,,0.00,0.0,meteohub,2013-03-26 07:32:00,
2013-03-26 03:37:00,32.4,28.6,29.79,WNW,282,0.0,3.0,83,0.00,,,0.00,0.0,meteohub,2013-03-26 07:37:00,
2013-03-26 03:44:00,32.4,28.6,29.79,WNW,282,0.0,3.0,83,0.00,,,0.00,0.0,meteohub,2013-03-26 07:44:00,
2013-03-26 03:50:00,32.4,28.6,29.80,WNW,282,0.0,3.0,83,0.00,,,0.00,0.0,meteohub,2013-03-26 07:50:00,
2013-03-26 03:56:00,32.4,28.6,29.80,WNW,282,0.0,1.0,83,0.00,,,0.00,0.0,meteohub,2013-03-26 07:56:00,
2013-03-26 04:02:00,32.4,28.6,29.79,WNW,282,0.0,1.0,83,0.00,,,0.00,0.0,meteohub,2013-03-26 08:02:00,
2013-03-26 04:07:00,32.4,28.6,29.80,WNW,282,0.0,1.0,83,0.00,,,0.00,0.0,meteohub,2013-03-26 08:07:00,
2013-03-26 04:12:00,32.4,28.9,29.79,WNW,282,0.0,1.0,84,0.00,,,0.00,0.0,meteohub,2013-03-26 08:12:00,
2013-03-26 04:17:00,32.4,28.9,29.79,WNW,282,1.0,2.0,84,0.00,,,0.00,0.0,meteohub,2013-03-26 08:17:00,
2013-03-26 04:22:00,32.4,28.9,29.80,WNW,282,0.0,3.0,84,0.00,,,0.00,0.0,meteohub,2013-03-26 08:22:00,
2013-03-26 04:27:00,32.5,29.1,29.80,WNW,282,0.0,3.0,84,0.00,,,0.00,0.0,meteohub,2013-03-26 08:27:00,
2013-03-26 04:33:00,32.4,28.9,29.80,WNW,282,0.0,3.0,84,0.00,,,0.00,0.0,meteohub,2013-03-26 08:33:00,
2013-03-26 04:39:00,32.4,28.9,29.80,WNW,282,0.0,1.0,84,0.00,,,0.00,0.0,meteohub,2013-03-26 08:39:00,
2013-03-26 04:45:00,32.2,28.4,29.80,WNW,282,0.0,1.0,83,0.00,,,0.00,0.0,meteohub,2013-03-26 08:45:00,
2013-03-26 04:51:00,32.2,28.8,29.80,East,79,4.0,4.0,84,0.00,,,0.00,0.0,meteohub,2013-03-26 08:51:00,
2013-03-26 04:57:00,32.2,28.4,29.81,ENE,63,0.0,5.0,83,0.00,,,0.00,0.0,meteohub,2013-03-26 08:57:00,
2013-03-26 05:02:00,32.2,28.8,29.80,ENE,63,0.0,5.0,84,0.00,,,0.00,0.0,meteohub,2013-03-26 09:02:00,
2013-03-26 05:07:00,32.0,28.6,29.80,ENE,63,0.0,5.0,84,0.00,,,0.00,0.0,meteohub,2013-03-26 09:07:00,
2013-03-26 05:12:00,31.8,28.4,29.81,ENE,63,0.0,4.0,84,0.00,,,0.00,0.0,meteohub,2013-03-26 09:12:00,
2013-03-26 05:17:00,31.6,28.2,29.81,ENE,63,0.0,3.0,84,0.00,,,0.00,0.0,meteohub,2013-03-26 09:17:00,
2013-03-26 05:22:00,31.5,28.4,29.81,ENE,63,0.0,3.0,85,0.00,,,0.00,0.0,meteohub,2013-03-26 09:22:00,
2013-03-26 05:27:00,31.3,28.2,29.81,ENE,63,0.0,3.0,85,0.00,,,0.00,0.0,meteohub,2013-03-26 09:27:00,
2013-03-26 05:32:00,31.3,28.2,29.82,ESE,121,0.0,2.0,85,0.00,,,0.00,0.0,meteohub,2013-03-26 09:32:00,
2013-03-26 05:37:00,31.3,27.9,29.82,NW,315,0.0,3.0,84,0.00,,,0.00,0.0,meteohub,2013-03-26 09:37:00,
2013-03-26 05:43:00,31.3,27.9,29.82,NW,315,0.0,3.0,84,0.00,,,0.00,0.0,meteohub,2013-03-26 09:43:00,
2013-03-26 05:49:00,31.3,28.2,29.82,NW,315,0.0,3.0,85,0.00,,,0.00,0.0,meteohub,2013-03-26 09:49:00,
2013-03-26 05:55:00,31.1,28.0,29.82,NW,315,1.0,3.0,85,0.00,,,0.00,0.0,meteohub,2013-03-26 09:55:00,
2013-03-26 06:02:00,31.1,28.2,29.82,WNW,298,2.0,3.0,86,0.00,,,0.00,0.0,meteohub,2013-03-26 10:02:00,
2013-03-26 06:07:00,31.1,28.0,29.82,WNW,298,1.0,3.0,85,0.00,,,0.00,0.0,meteohub,2013-03-26 10:07:00,
2013-03-26 06:12:00,31.1,28.0,29.82,WNW,298,2.0,3.0,85,0.00,,,0.00,0.0,meteohub,2013-03-26 10:12:00,
2013-03-26 06:17:00,30.9,27.9,29.82,WNW,298,0.0,3.0,85,0.00,,,0.00,0.0,meteohub,2013-03-26 10:17:00,
2013-03-26 06:22:00,30.7,27.7,29.82,WNW,298,0.0,3.0,85,0.00,,,0.00,0.0,meteohub,2013-03-26 10:22:00,
2013-03-26 06:29:00,30.6,27.7,29.82,NNE,30,1.0,2.0,86,0.00,,,0.00,0.0,meteohub,2013-03-26 10:29:00,
2013-03-26 06:35:00,30.4,27.5,29.83,ESE,112,1.0,2.0,86,0.00,,,0.00,0.0,meteohub,2013-03-26 10:35:00,
2013-03-26 06:42:00,30.2,27.3,29.83,East,93,0.0,3.0,86,0.00,,,0.00,0.0,meteohub,2013-03-26 10:42:00,
2013-03-26 06:47:00,30.0,27.1,29.83,East,93,1.0,3.0,86,0.00,,,0.00,0.0,meteohub,2013-03-26 10:47:00,
2013-03-26 06:52:00,29.8,27.0,29.84,East,93,1.0,3.0,86,0.00,,,0.00,0.0,meteohub,2013-03-26 10:52:00,
2013-03-26 06:57:00,29.7,26.8,29.84,East,93,0.0,3.0,86,0.00,,,0.00,0.0,meteohub,2013-03-26 10:57:00,
2013-03-26 07:02:00,29.5,26.6,29.84,East,93,0.0,3.0,86,0.00,,,0.00,0.0,meteohub,2013-03-26 11:02:00,
2013-03-26 07:07:00,29.5,26.6,29.85,South,187,0.0,5.0,86,0.00,,,0.00,0.0,meteohub,2013-03-26 11:07:00,
2013-03-26 07:12:00,29.5,26.6,29.85,South,187,1.0,5.0,86,0.00,,,0.00,7.0,meteohub,2013-03-26 11:12:00,
2013-03-26 07:17:00,29.3,26.4,29.85,South,187,0.0,5.0,86,0.00,,,0.00,9.0,meteohub,2013-03-26 11:17:00,
2013-03-26 07:22:00,29.3,26.4,29.85,South,187,0.0,2.0,86,0.00,,,0.00,12.0,meteohub,2013-03-26 11:22:00,
2013-03-26 07:27:00,29.3,26.4,29.85,South,187,0.0,2.0,86,0.00,,,0.00,16.0,meteohub,2013-03-26 11:27:00,
2013-03-26 07:33:00,29.3,26.4,29.85,South,187,0.0,1.0,86,0.00,,,0.00,19.0,meteohub,2013-03-26 11:33:00,
2013-03-26 07:39:00,29.1,26.2,29.85,South,187,0.0,1.0,86,0.00,,,0.00,23.0,meteohub,2013-03-26 11:39:00,
2013-03-26 07:46:00,29.1,26.2,29.86,South,187,0.0,0.0,86,0.00,,,0.00,62.0,meteohub,2013-03-26 11:46:00,
2013-03-26 07:52:00,29.3,26.8,29.86,South,187,0.0,2.0,87,0.00,,,0.00,42.0,meteohub,2013-03-26 11:52:00,
2013-03-26 07:57:00,29.3,26.8,29.86,South,187,1.0,2.0,87,0.00,,,0.00,76.0,meteohub,2013-03-26 11:57:00,
2013-03-26 08:02:00,29.5,27.0,29.87,South,187,0.0,2.0,87,0.00,,,0.00,33.0,meteohub,2013-03-26 12:02:00,
2013-03-26 08:07:00,29.5,27.0,29.87,South,187,0.0,2.0,87,0.00,,,0.00,146.0,meteohub,2013-03-26 12:07:00,
2013-03-26 08:13:00,30.0,27.5,29.87,South,187,0.0,2.0,87,0.00,,,0.00,40.0,meteohub,2013-03-26 12:13:00,
2013-03-26 08:19:00,30.0,27.1,29.87,South,187,1.0,0.0,86,0.00,,,0.00,100.0,meteohub,2013-03-26 12:19:00,
2013-03-26 08:25:00,30.2,27.3,29.88,South,185,0.0,2.0,86,0.00,,,0.00,264.0,meteohub,2013-03-26 12:25:00,
2013-03-26 08:31:00,30.9,28.0,29.88,NE,56,3.0,3.0,86,0.00,,,0.00,290.0,meteohub,2013-03-26 12:31:00,
2013-03-26 08:37:00,31.8,28.9,29.88,NW,318,0.0,4.0,86,0.00,,,0.00,311.0,meteohub,2013-03-26 12:37:00,
2013-03-26 08:42:00,32.7,29.5,29.88,NW,318,0.0,4.0,85,0.00,,,0.00,327.0,meteohub,2013-03-26 12:42:00,
2013-03-26 08:50:00,34.0,30.0,29.88,NW,318,0.0,4.0,82,0.00,,,0.00,359.0,meteohub,2013-03-26 12:50:00,
2013-03-26 08:56:00,34.9,30.2,29.88,NW,318,0.0,2.0,80,0.00,,,0.00,378.0,meteohub,2013-03-26 12:56:00,
2013-03-26 09:02:00,36.0,31.3,29.88,NW,318,0.0,1.0,80,0.00,,,0.00,403.0,meteohub,2013-03-26 13:02:00,
2013-03-26 09:08:00,37.4,31.1,29.88,NW,318,0.0,1.0,75,0.00,,,0.00,432.0,meteohub,2013-03-26 13:08:00,
2013-03-26 09:14:00,39.0,32.2,29.89,NW,318,0.0,0.0,73,0.00,,,0.00,457.0,meteohub,2013-03-26 13:14:00,
2013-03-26 09:20:00,40.3,32.7,29.89,NW,318,0.0,0.0,71,0.01,,,0.01,475.0,meteohub,2013-03-26 13:20:00,
2013-03-26 09:26:00,41.4,31.6,29.89,ESE,116,2.0,3.0,65,0.01,,,0.01,494.0,meteohub,2013-03-26 13:26:00,
2013-03-26 09:32:00,42.1,32.4,29.89,East,94,2.0,8.0,65,0.01,,,0.01,512.0,meteohub,2013-03-26 13:32:00,
2013-03-26 09:38:00,43.0,30.4,29.89,NNW,341,6.0,8.0,58,0.01,,,0.01,111.0,meteohub,2013-03-26 13:38:00,
2013-03-26 09:44:00,42.8,30.2,29.89,NE,38,0.0,8.0,58,0.01,,,0.01,98.0,meteohub,2013-03-26 13:44:00,
2013-03-26 09:51:00,42.8,30.2,29.89,ENE,72,3.0,7.0,58,0.01,,,0.01,142.0,meteohub,2013-03-26 13:51:00,
2013-03-26 09:57:00,43.2,30.2,29.90,West,269,3.0,6.0,57,0.01,,,0.01,661.0,meteohub,2013-03-26 13:57:00,
2013-03-26 10:02:00,43.7,30.7,29.90,ENE,59,4.0,5.0,57,0.01,,,0.01,218.0,meteohub,2013-03-26 14:02:00,
2013-03-26 10:07:00,44.4,30.6,29.90,NW,319,1.0,12.0,55,0.02,,,0.02,654.0,meteohub,2013-03-26 14:07:00,
2013-03-26 10:12:00,44.6,30.7,29.90,NNW,338,1.0,12.0,55,0.01,,,0.02,689.0,meteohub,2013-03-26 14:12:00,
2013-03-26 10:17:00,45.0,31.5,29.90,South,189,1.0,12.0,56,0.01,,,0.02,670.0,meteohub,2013-03-26 14:17:00,
2013-03-26 10:22:00,45.5,30.7,29.90,WSW,251,0.0,4.0,53,0.01,,,0.02,687.0,meteohub,2013-03-26 14:22:00,
2013-03-26 10:27:00,45.7,30.4,29.90,South,173,1.0,4.0,52,0.01,,,0.02,729.0,meteohub,2013-03-26 14:27:00,
2013-03-26 10:33:00,45.9,30.6,29.91,West,276,2.0,4.0,52,0.01,,,0.02,705.0,meteohub,2013-03-26 14:33:00,
2013-03-26 10:39:00,45.9,31.5,29.91,NNW,343,2.0,5.0,54,0.01,,,0.02,740.0,meteohub,2013-03-26 14:39:00,
2013-03-26 10:46:00,46.0,30.7,29.91,NE,56,2.0,6.0,52,0.01,,,0.02,810.0,meteohub,2013-03-26 14:46:00,
2013-03-26 10:52:00,46.0,29.8,29.91,SW,217,1.0,7.0,50,0.01,,,0.02,932.0,meteohub,2013-03-26 14:52:00,
2013-03-26 10:57:00,46.0,31.3,29.91,SSW,211,3.0,7.0,53,0.01,,,0.02,930.0,meteohub,2013-03-26 14:57:00,
2013-03-26 11:02:00,46.2,30.9,29.92,East,97,4.0,6.0,52,0.00,,,0.02,918.0,meteohub,2013-03-26 15:02:00,
2013-03-26 11:07:00,46.0,30.4,29.92,WNW,297,4.0,6.0,51,0.00,,,0.02,292.0,meteohub,2013-03-26 15:07:00,
2013-03-26 11:12:00,45.5,29.3,29.92,NNE,23,2.0,11.0,50,0.00,,,0.02,283.0,meteohub,2013-03-26 15:12:00,
2013-03-26 11:17:00,45.5,30.2,29.92,NNW,340,1.0,11.0,52,0.00,,,0.02,237.0,meteohub,2013-03-26 15:17:00,
2013-03-26 11:22:00,45.3,30.0,29.92,WNW,300,2.0,9.0,52,0.00,,,0.02,248.0,meteohub,2013-03-26 15:22:00,
2013-03-26 11:27:00,45.5,31.1,29.92,West,265,3.0,9.0,54,0.00,,,0.02,304.0,meteohub,2013-03-26 15:27:00,
2013-03-26 11:34:00,46.2,30.9,29.93,WNW,286,1.0,9.0,52,0.00,,,0.02,399.0,meteohub,2013-03-26 15:34:00,
2013-03-26 11:40:00,46.4,31.1,29.93,North,5,2.0,10.0,52,0.00,,,0.02,264.0,meteohub,2013-03-26 15:40:00,
2013-03-26 11:46:00,46.2,31.3,29.93,North,350,2.0,10.0,53,0.00,,,0.02,125.0,meteohub,2013-03-26 15:46:00,
2013-03-26 11:52:00,45.5,31.1,29.93,NE,46,2.0,7.0,54,0.00,,,0.02,86.0,meteohub,2013-03-26 15:52:00,
2013-03-26 11:57:00,44.8,30.4,29.94,NNW,333,3.0,8.0,54,0.00,,,0.02,113.0,meteohub,2013-03-26 15:57:00,
2013-03-26 12:02:00,44.4,30.6,29.94,NNW,338,3.0,8.0,55,0.00,,,0.02,153.0,meteohub,2013-03-26 16:02:00,
2013-03-26 12:07:00,43.9,30.4,29.94,West,265,0.0,11.0,56,0.00,,,0.02,153.0,meteohub,2013-03-26 16:07:00,
2013-03-26 12:12:00,43.9,30.9,29.94,SW,234,3.0,11.0,57,0.00,,,0.02,132.0,meteohub,2013-03-26 16:12:00,
2013-03-26 12:17:00,43.5,30.2,29.95,WNW,300,0.0,6.0,56,0.00,,,0.02,111.0,meteohub,2013-03-26 16:17:00,
2013-03-26 12:22:00,43.3,30.4,29.95,WNW,299,2.0,6.0,57,0.00,,,0.02,121.0,meteohub,2013-03-26 16:22:00,
2013-03-26 12:27:00,43.2,30.2,29.95,North,355,3.0,6.0,57,0.00,,,0.02,144.0,meteohub,2013-03-26 16:27:00,
2013-03-26 12:32:00,43.0,30.4,29.95,WNW,294,1.0,7.0,58,0.00,,,0.02,197.0,meteohub,2013-03-26 16:32:00,
2013-03-26 12:37:00,43.0,29.7,29.94,SW,232,5.0,7.0,56,0.00,,,0.02,258.0,meteohub,2013-03-26 16:37:00,
2013-03-26 12:44:00,43.3,31.1,29.94,North,0,4.0,8.0,59,0.00,,,0.02,287.0,meteohub,2013-03-26 16:44:00,
2013-03-26 12:50:00,43.7,31.5,29.95,NNW,329,1.0,8.0,59,0.00,,,0.02,325.0,meteohub,2013-03-26 16:50:00,
2013-03-26 12:57:00,44.1,30.6,29.94,WNW,290,2.0,5.0,56,0.00,,,0.02,325.0,meteohub,2013-03-26 16:57:00,
2013-03-26 13:03:00,44.2,30.4,29.94,WSW,255,3.0,5.0,55,0.00,,,0.02,327.0,meteohub,2013-03-26 17:03:00,
2013-03-26 13:09:00,44.4,29.7,29.94,ENE,69,6.0,6.0,53,0.00,,,0.02,316.0,meteohub,2013-03-26 17:09:00,
2013-03-26 13:15:00,44.8,30.0,29.94,WSW,246,2.0,6.0,53,0.00,,,0.02,334.0,meteohub,2013-03-26 17:15:00,
2013-03-26 13:21:00,44.8,30.0,29.95,West,263,2.0,7.0,53,0.00,,,0.02,394.0,meteohub,2013-03-26 17:21:00,
2013-03-26 13:27:00,45.1,29.8,29.94,NW,305,9.0,9.0,52,0.00,,,0.02,422.0,meteohub,2013-03-26 17:27:00,
2013-03-26 13:32:00,45.3,29.7,29.94,NW,320,1.0,9.0,51,0.00,,,0.02,443.0,meteohub,2013-03-26 17:32:00,
2013-03-26 13:37:00,45.5,30.2,29.94,West,259,1.0,9.0,52,0.00,,,0.02,397.0,meteohub,2013-03-26 17:37:00,
2013-03-26 13:43:00,45.7,29.1,29.94,WNW,283,5.0,9.0,49,0.00,,,0.02,381.0,meteohub,2013-03-26 17:43:00,
2013-03-26 13:49:00,45.7,30.0,29.94,WNW,292,7.0,7.0,51,0.00,,,0.02,355.0,meteohub,2013-03-26 17:49:00,
2013-03-26 13:55:00,45.9,30.2,29.94,NW,308,2.0,8.0,51,0.00,,,0.02,350.0,meteohub,2013-03-26 17:55:00,
2013-03-26 14:01:00,45.9,28.2,29.94,NW,311,6.0,9.0,47,0.00,,,0.02,360.0,meteohub,2013-03-26 18:01:00,
2013-03-26 14:07:00,46.0,28.9,29.94,WSW,247,3.0,9.0,48,0.00,,,0.02,383.0,meteohub,2013-03-26 18:07:00,
2013-03-26 14:12:00,46.2,30.0,29.94,WSW,250,1.0,9.0,50,0.00,,,0.02,429.0,meteohub,2013-03-26 18:12:00,
2013-03-26 14:17:00,46.6,29.5,29.94,North,355,1.0,9.0,48,0.00,,,0.02,497.0,meteohub,2013-03-26 18:17:00,
2013-03-26 14:22:00,47.1,29.8,29.94,NW,311,2.0,9.0,48,0.00,,,0.02,557.0,meteohub,2013-03-26 18:22:00,
2013-03-26 14:27:00,47.8,30.0,29.94,SW,234,1.0,9.0,47,0.00,,,0.02,455.0,meteohub,2013-03-26 18:27:00,
2013-03-26 14:32:00,48.4,29.1,29.94,NW,309,2.0,7.0,44,0.00,,,0.02,299.0,meteohub,2013-03-26 18:32:00,
2013-03-26 14:37:00,48.0,28.2,29.94,WNW,286,4.0,7.0,43,0.00,,,0.02,211.0,meteohub,2013-03-26 18:37:00,
2013-03-26 14:42:00,47.5,27.7,29.94,NNW,336,0.0,15.0,43,0.00,,,0.02,243.0,meteohub,2013-03-26 18:42:00,
2013-03-26 14:47:00,47.1,27.9,29.94,North,351,2.0,15.0,44,0.00,,,0.02,376.0,meteohub,2013-03-26 18:47:00,
2013-03-26 14:52:00,47.3,28.6,29.94,NNW,341,2.0,15.0,45,0.00,,,0.02,997.0,meteohub,2013-03-26 18:52:00,
2013-03-26 14:57:00,48.0,29.3,29.94,NW,313,5.0,10.0,45,0.00,,,0.02,529.0,meteohub,2013-03-26 18:57:00,
2013-03-26 15:02:00,48.0,28.2,29.94,WSW,258,3.0,10.0,43,0.00,,,0.02,418.0,meteohub,2013-03-26 19:02:00,
2013-03-26 15:08:00,47.5,29.3,29.94,West,265,2.0,12.0,46,0.00,,,0.02,350.0,meteohub,2013-03-26 19:08:00,
2013-03-26 15:14:00,47.1,28.4,29.94,WNW,291,8.0,12.0,45,0.00,,,0.02,360.0,meteohub,2013-03-26 19:14:00,
2013-03-26 15:20:00,46.8,28.0,29.94,ENE,63,4.0,12.0,45,0.00,,,0.02,431.0,meteohub,2013-03-26 19:20:00,
2013-03-26 15:26:00,47.3,28.6,29.94,SW,219,2.0,12.0,45,0.00,,,0.02,429.0,meteohub,2013-03-26 19:26:00,
2013-03-26 15:32:00,47.8,29.7,29.93,WNW,296,4.0,10.0,46,0.00,,,0.02,345.0,meteohub,2013-03-26 19:32:00,
2013-03-26 15:38:00,47.8,28.0,29.94,South,182,1.0,11.0,43,0.00,,,0.02,232.0,meteohub,2013-03-26 19:38:00,
2013-03-26 15:45:00,47.5,28.2,29.94,West,264,2.0,11.0,44,0.00,,,0.02,301.0,meteohub,2013-03-26 19:45:00,
2013-03-26 15:51:00,47.3,27.0,29.94,West,271,3.0,11.0,42,0.00,,,0.02,336.0,meteohub,2013-03-26 19:51:00,
2013-03-26 15:57:00,47.3,27.5,29.93,NW,317,3.0,11.0,43,0.00,,,0.02,302.0,meteohub,2013-03-26 19:57:00,
2013-03-26 16:02:00,47.3,27.5,29.94,SSW,200,5.0,9.0,43,0.00,,,0.02,288.0,meteohub,2013-03-26 20:02:00,
2013-03-26 16:07:00,47.3,26.4,29.93,NW,323,1.0,9.0,41,0.00,,,0.02,232.0,meteohub,2013-03-26 20:07:00,
2013-03-26 16:12:00,46.9,26.6,29.94,WSW,246,0.0,13.0,42,0.00,,,0.02,248.0,meteohub,2013-03-26 20:12:00,
2013-03-26 16:18:00,47.1,26.2,29.94,West,271,2.0,13.0,41,0.00,,,0.02,262.0,meteohub,2013-03-26 20:18:00,
2013-03-26 16:24:00,47.3,27.5,29.94,SSE,160,0.0,13.0,43,0.00,,,0.02,227.0,meteohub,2013-03-26 20:24:00,
2013-03-26 16:30:00,47.1,25.7,29.94,West,277,2.0,12.0,40,0.00,,,0.02,120.0,meteohub,2013-03-26 20:30:00,
2013-03-26 16:37:00,46.8,26.4,29.94,NNW,337,0.0,12.0,42,0.00,,,0.02,185.0,meteohub,2013-03-26 20:37:00,
2013-03-26 16:42:00,46.9,27.1,29.95,NNE,21,2.0,12.0,43,0.00,,,0.02,229.0,meteohub,2013-03-26 20:42:00,
2013-03-26 16:47:00,47.3,27.5,29.95,SSW,194,3.0,9.0,43,0.00,,,0.02,439.0,meteohub,2013-03-26 20:47:00,
2013-03-26 16:52:00,47.7,28.4,29.94,NE,38,1.0,9.0,44,0.00,,,0.02,257.0,meteohub,2013-03-26 20:52:00,
2013-03-26 16:58:00,48.4,28.0,29.95,WNW,297,4.0,9.0,42,0.00,,,0.02,225.0,meteohub,2013-03-26 20:58:00,
2013-03-26 17:04:00,48.4,28.0,29.94,NNW,339,4.0,9.0,42,0.00,,,0.02,135.0,meteohub,2013-03-26 21:04:00,
2013-03-26 17:10:00,48.2,27.9,29.95,North,5,2.0,10.0,42,0.00,,,0.02,359.0,meteohub,2013-03-26 21:10:00,
2013-03-26 17:16:00,48.2,27.3,29.95,North,350,1.0,7.0,41,0.00,,,0.02,105.0,meteohub,2013-03-26 21:16:00,
2013-03-26 17:22:00,47.8,27.5,29.95,South,191,2.0,7.0,42,0.00,,,0.02,74.0,meteohub,2013-03-26 21:22:00,
2013-03-26 17:27:00,47.3,27.0,29.96,NW,304,8.0,8.0,42,0.00,,,0.02,54.0,meteohub,2013-03-26 21:27:00,
2013-03-26 17:32:00,46.8,27.0,29.96,West,279,2.0,8.0,43,0.00,,,0.02,86.0,meteohub,2013-03-26 21:32:00,
2013-03-26 17:38:00,46.6,27.3,29.96,NE,34,0.0,8.0,44,0.00,,,0.02,91.0,meteohub,2013-03-26 21:38:00,
2013-03-26 17:44:00,46.4,27.3,29.96,NW,315,1.0,8.0,44,0.00,,,0.02,76.0,meteohub,2013-03-26 21:44:00,
2013-03-26 17:50:00,46.2,27.5,29.96,WNW,294,0.0,5.0,45,0.00,,,0.02,109.0,meteohub,2013-03-26 21:50:00,
2013-03-26 17:56:00,46.2,28.6,29.96,SW,220,0.0,5.0,47,0.00,,,0.02,77.0,meteohub,2013-03-26 21:56:00,
2013-03-26 18:02:00,46.2,27.5,29.96,NW,304,2.0,5.0,45,0.00,,,0.02,111.0,meteohub,2013-03-26 22:02:00,
2013-03-26 18:07:00,46.2,27.1,29.96,West,271,1.0,5.0,44,0.00,,,0.02,88.0,meteohub,2013-03-26 22:07:00,
2013-03-26 18:12:00,46.2,27.5,29.96,NW,308,3.0,5.0,45,0.00,,,0.02,49.0,meteohub,2013-03-26 22:12:00,
2013-03-26 18:17:00,46.2,27.5,29.97,NNW,341,2.0,5.0,45,0.00,,,0.02,40.0,meteohub,2013-03-26 22:17:00,
2013-03-26 18:22:00,46.0,27.5,29.97,NNW,344,1.0,5.0,45,0.00,,,0.02,25.0,meteohub,2013-03-26 22:22:00,
2013-03-26 18:27:00,45.9,27.3,29.97,West,272,4.0,7.0,45,0.00,,,0.02,28.0,meteohub,2013-03-26 22:27:00,
2013-03-26 18:33:00,45.9,27.7,29.98,WNW,286,2.0,7.0,46,0.00,,,0.02,120.0,meteohub,2013-03-26 22:33:00,
2013-03-26 18:39:00,46.2,28.6,29.97,North,355,3.0,7.0,47,0.00,,,0.02,130.0,meteohub,2013-03-26 22:39:00,
2013-03-26 18:45:00,46.6,28.4,29.98,NE,38,0.0,9.0,46,0.00,,,0.02,86.0,meteohub,2013-03-26 22:45:00,
2013-03-26 18:52:00,46.6,27.9,29.98,West,274,1.0,7.0,45,0.00,,,0.02,63.0,meteohub,2013-03-26 22:52:00,
2013-03-26 18:57:00,46.2,27.5,29.99,WNW,298,0.0,7.0,45,0.00,,,0.02,60.0,meteohub,2013-03-26 22:57:00,
2013-03-26 19:04:00,45.9,28.2,29.99,WNW,284,3.0,7.0,47,0.00,,,0.02,26.0,meteohub,2013-03-26 23:04:00,
2013-03-26 19:10:00,45.5,27.9,29.99,WNW,283,0.0,7.0,47,0.00,,,0.02,16.0,meteohub,2013-03-26 23:10:00,
2013-03-26 19:18:00,45.3,27.7,29.99,WNW,283,0.0,5.0,47,0.00,,,0.02,12.0,meteohub,2013-03-26 23:18:00,
2013-03-26 19:25:00,44.6,27.5,30.00,WNW,283,0.0,5.0,48,0.00,,,0.02,7.0,meteohub,2013-03-26 23:25:00,
2013-03-26 19:32:00,44.1,27.1,30.00,WNW,293,0.0,2.0,48,0.00,,,0.02,0.0,meteohub,2013-03-26 23:32:00,
2013-03-26 19:37:00,43.7,26.8,30.00,WNW,294,0.0,3.0,48,0.00,,,0.02,0.0,meteohub,2013-03-26 23:37:00,
2013-03-26 19:42:00,43.5,27.0,30.00,WNW,294,0.0,3.0,49,0.00,,,0.02,0.0,meteohub,2013-03-26 23:42:00,
2013-03-26 19:47:00,43.2,27.7,30.00,WNW,294,0.0,3.0,51,0.00,,,0.02,0.0,meteohub,2013-03-26 23:47:00,
2013-03-26 19:53:00,42.4,29.1,30.01,WNW,294,0.0,1.0,56,0.00,,,0.02,0.0,meteohub,2013-03-26 23:53:00,
2013-03-26 19:59:00,41.5,29.1,30.01,WNW,294,0.0,2.0,58,0.00,,,0.02,0.0,meteohub,2013-03-26 23:59:00,
2013-03-26 20:05:00,40.8,29.7,30.01,WNW,294,0.0,2.0,61,0.00,,,0.02,0.0,meteohub,2013-03-27 00:05:00,
2013-03-26 20:11:00,40.1,29.3,30.02,WNW,294,1.0,1.0,62,0.00,,,0.02,0.0,meteohub,2013-03-27 00:11:00,
2013-03-26 20:17:00,39.4,29.3,30.01,WNW,294,0.0,3.0,64,0.00,,,0.02,0.0,meteohub,2013-03-27 00:17:00,
2013-03-26 20:22:00,39.0,29.3,30.02,WNW,294,0.0,3.0,65,0.00,,,0.02,0.0,meteohub,2013-03-27 00:22:00,
2013-03-26 20:30:00,38.1,29.5,30.03,WNW,294,1.0,3.0,68,0.00,,,0.02,0.0,meteohub,2013-03-27 00:30:00,
2013-03-26 20:36:00,37.6,29.3,30.03,WNW,294,0.0,3.0,69,0.00,,,0.02,0.0,meteohub,2013-03-27 00:36:00,
2013-03-26 20:42:00,37.2,28.9,30.03,WNW,294,0.0,3.0,69,0.00,,,0.02,0.0,meteohub,2013-03-27 00:42:00,
2013-03-26 20:47:00,36.9,28.9,30.03,WNW,294,0.0,1.0,70,0.00,,,0.02,0.0,meteohub,2013-03-27 00:47:00,
2013-03-26 20:52:00,36.5,28.9,30.04,WNW,294,0.0,0.0,71,0.00,,,0.02,0.0,meteohub,2013-03-27 00:52:00,
2013-03-26 20:57:00,36.3,29.1,30.04,WNW,294,0.0,0.0,72,0.00,,,0.02,0.0,meteohub,2013-03-27 00:57:00,
2013-03-26 21:02:00,36.0,29.1,30.04,ENE,67,1.0,3.0,73,0.00,,,0.02,0.0,meteohub,2013-03-27 01:02:00,
2013-03-26 21:07:00,35.8,29.3,30.04,ENE,67,0.0,3.0,74,0.00,,,0.02,0.0,meteohub,2013-03-27 01:07:00,
2013-03-26 21:12:00,35.6,29.1,30.04,ENE,67,0.0,3.0,74,0.00,,,0.02,0.0,meteohub,2013-03-27 01:12:00,
2013-03-26 21:17:00,35.4,29.3,30.04,ENE,67,0.0,2.0,75,0.00,,,0.02,0.0,meteohub,2013-03-27 01:17:00,
2013-03-26 21:22:00,35.1,28.6,30.05,ENE,67,0.0,0.0,74,0.00,,,0.02,0.0,meteohub,2013-03-27 01:22:00,
2013-03-26 21:27:00,34.7,28.6,30.05,ENE,69,0.0,0.0,75,0.00,,,0.02,0.0,meteohub,2013-03-27 01:27:00,
2013-03-26 21:32:00,34.5,28.8,30.05,ENE,69,0.0,2.0,76,0.00,,,0.02,0.0,meteohub,2013-03-27 01:32:00,
2013-03-26 21:37:00,34.2,28.4,30.06,ENE,70,0.0,2.0,76,0.00,,,0.02,0.0,meteohub,2013-03-27 01:37:00,
2013-03-26 21:43:00,34.0,28.4,30.06,ENE,70,0.0,2.0,77,0.00,,,0.02,0.0,meteohub,2013-03-27 01:43:00,
2013-03-26 21:49:00,33.6,28.4,30.06,ENE,70,0.0,0.0,78,0.00,,,0.02,0.0,meteohub,2013-03-27 01:49:00,
2013-03-26 21:56:00,33.3,28.0,30.06,ENE,70,0.0,0.0,78,0.00,,,0.02,0.0,meteohub,2013-03-27 01:56:00,
2013-03-26 22:02:00,33.1,28.2,30.06,ENE,70,0.0,0.0,79,0.00,,,0.02,0.0,meteohub,2013-03-27 02:02:00,
2013-03-26 22:07:00,32.9,28.0,30.06,ENE,70,0.0,2.0,79,0.00,,,0.02,0.0,meteohub,2013-03-27 02:07:00,
2013-03-26 22:12:00,32.7,27.9,30.06,ENE,70,0.0,2.0,79,0.00,,,0.02,0.0,meteohub,2013-03-27 02:12:00,
2013-03-26 22:17:00,32.4,27.9,30.06,ENE,70,0.0,2.0,80,0.00,,,0.02,0.0,meteohub,2013-03-27 02:17:00,
2013-03-26 22:22:00,32.2,27.7,30.07,ENE,70,0.0,0.0,80,0.00,,,0.02,0.0,meteohub,2013-03-27 02:22:00,
2013-03-26 22:27:00,32.0,27.7,30.07,ENE,70,0.0,1.0,81,0.00,,,0.02,0.0,meteohub,2013-03-27 02:27:00,
2013-03-26 22:32:00,31.8,27.5,30.08,ENE,70,0.0,1.0,81,0.00,,,0.02,0.0,meteohub,2013-03-27 02:32:00,
2013-03-26 22:39:00,31.6,27.3,30.08,ENE,70,0.0,1.0,81,0.00,,,0.02,0.0,meteohub,2013-03-27 02:39:00,
2013-03-26 22:45:00,31.3,27.3,30.08,ENE,70,0.0,1.0,82,0.00,,,0.02,0.0,meteohub,2013-03-27 02:45:00,
2013-03-26 22:51:00,31.1,27.1,30.08,ENE,70,0.0,0.0,82,0.00,,,0.02,0.0,meteohub,2013-03-27 02:51:00,
2013-03-26 22:57:00,30.9,27.0,30.08,ENE,70,0.0,0.0,82,0.00,,,0.02,0.0,meteohub,2013-03-27 02:57:00,
2013-03-26 23:02:00,30.9,27.1,30.08,ENE,70,0.0,1.0,83,0.00,,,0.02,0.0,meteohub,2013-03-27 03:02:00,
2013-03-26 23:07:00,30.6,26.8,30.08,ENE,70,0.0,1.0,83,0.00,,,0.02,0.0,meteohub,2013-03-27 03:07:00,
2013-03-26 23:12:00,30.4,26.8,30.08,ENE,70,0.0,1.0,83,0.00,,,0.02,0.0,meteohub,2013-03-27 03:12:00,
2013-03-26 23:17:00,30.2,26.6,30.08,ENE,70,0.0,0.0,83,0.00,,,0.02,0.0,meteohub,2013-03-27 03:17:00,
2013-03-26 23:22:00,30.2,26.8,30.08,ENE,70,1.0,0.0,84,0.00,,,0.02,0.0,meteohub,2013-03-27 03:22:00,
2013-03-26 23:27:00,30.0,26.6,30.08,ENE,70,1.0,2.0,84,0.00,,,0.02,0.0,meteohub,2013-03-27 03:27:00,
2013-03-26 23:32:00,29.8,26.4,30.08,ENE,70,0.0,2.0,84,0.00,,,0.02,0.0,meteohub,2013-03-27 03:32:00,
2013-03-26 23:37:00,29.7,26.2,30.08,ENE,70,1.0,2.0,84,0.00,,,0.02,0.0,meteohub,2013-03-27 03:37:00,
2013-03-26 23:42:00,29.7,26.6,30.08,ENE,70,1.0,2.0,85,0.00,,,0.02,0.0,meteohub,2013-03-27 03:42:00,
2013-03-26 23:47:00,29.7,26.6,30.08,WNW,301,2.0,3.0,85,0.00,,,0.02,0.0,meteohub,2013-03-27 03:47:00,
2013-03-26 23:52:00,29.7,26.6,30.08,WNW,301,1.0,3.0,85,0.00,,,0.02,0.0,meteohub,2013-03-27 03:52:00,
2013-03-26 23:57:00,29.7,26.6,30.08,WNW,301,0.0,3.0,85,0.00,,,0.02,0.0,meteohub,2013-03-27 03:57:00,